Shawnee, Kansas
Current Conditions -  °F | °C
As of 9:54 AM on Friday 31 Oct 2014 (Local Time) from KMKC Reporting Station
Clear Clear  
Wind Chill: 28°   Ceiling: Unl
Heat Index: 37°   Visibility: 10mi
Dew Point: 20°   Wind: 16mph
Humidity: 50%   Direction: 10°N
Pressure: 30.5"   Gusts: 24mph
Location:  39.02°N, 94.71°W
Report Text: KMKC 311454Z 01014G21KT 10SM CLR 03/M07 A3050 RMK AO2 SLP329 T00281067 51031
Loading
Personal Weather Stations






























Interactive Weather Map New forecast layout! Learn more

10-Day Weather Forecast

Advertisements
Track Severe Weather on mobile